createdAt,value
2022-07-30T00:00:52.404Z,5.73
2022-07-30T00:03:21.606Z,7.93
2022-07-30T00:05:49.195Z,7.80
2022-07-30T00:08:16.438Z,8.53
2022-07-30T00:10:43.689Z,5.43
2022-07-30T00:13:14.221Z,5.83
2022-07-30T00:15:41.985Z,7.30
2022-07-30T00:18:09.279Z,6.43
2022-07-30T00:20:40.396Z,9.23
2022-07-30T00:23:10.931Z,8.07
2022-07-30T00:25:38.114Z,6.43
2022-07-30T00:28:05.437Z,9.43
2022-07-30T00:30:32.850Z,5.93
2022-07-30T00:33:00.352Z,7.97
2022-07-30T00:35:27.713Z,8.90
2022-07-30T00:37:55.060Z,4.77
2022-07-30T00:40:22.306Z,5.03
2022-07-30T00:42:49.573Z,6.03
2022-07-30T00:45:18.543Z,6.33
2022-07-30T00:47:46.101Z,8.90
2022-07-30T00:50:14.255Z,6.70
2022-07-30T00:52:41.995Z,6.07
2022-07-30T00:55:10.172Z,6.70
2022-07-30T00:57:37.795Z,8.37
2022-07-30T01:00:08.538Z,6.67
2022-07-30T01:02:35.884Z,6.00
2022-07-30T01:05:03.217Z,7.70
2022-07-30T01:07:30.543Z,6.70
2022-07-30T01:09:57.913Z,5.77
2022-07-30T01:12:26.467Z,6.73
2022-07-30T01:14:54.514Z,6.23
2022-07-30T01:17:22.055Z,5.90
2022-07-30T01:19:52.581Z,8.03
2022-07-30T01:22:30.369Z,6.77
2022-07-30T01:24:58.332Z,8.80
2022-07-30T01:27:27.092Z,7.70
2022-07-30T01:29:56.240Z,7.40
2022-07-30T01:32:24.624Z,10.07
2022-07-30T01:34:56.583Z,7.83
2022-07-30T01:37:25.173Z,5.60
2022-07-30T01:39:53.939Z,7.43
2022-07-30T01:42:21.599Z,6.77
2022-07-30T01:44:50.272Z,7.10
2022-07-30T01:47:18.135Z,6.77
2022-07-30T01:49:47.480Z,8.17
2022-07-30T01:52:15.495Z,7.57
2022-07-30T01:54:44.408Z,6.10
2022-07-30T01:57:12.079Z,7.50
2022-07-30T01:59:40.483Z,6.67
2022-07-30T02:02:07.931Z,7.10
2022-07-30T02:04:35.381Z,8.97
2022-07-30T02:07:09.792Z,6.77
2022-07-30T02:09:39.019Z,6.83
2022-07-30T02:12:25.987Z,6.73
2022-07-30T02:14:55.820Z,7.70
2022-07-30T02:17:30.407Z,10.03
2022-07-30T02:20:05.648Z,6.73
2022-07-30T02:22:38.774Z,6.83
2022-07-30T02:25:06.940Z,11.03
2022-07-30T02:27:38.323Z,9.47
2022-07-30T02:30:06.413Z,8.40
2022-07-30T02:32:39.083Z,7.93
2022-07-30T02:35:22.184Z,8.53
2022-07-30T02:37:50.947Z,6.33
2022-07-30T02:40:20.372Z,7.27
2022-07-30T02:42:49.068Z,12.00
2022-07-30T02:45:22.578Z,13.07
2022-07-30T02:47:51.877Z,7.53
2022-07-30T02:50:19.731Z,7.00
2022-07-30T02:52:48.116Z,10.93
2022-07-30T02:55:16.389Z,9.20
2022-07-30T02:57:43.852Z,8.83
2022-07-30T03:00:13.054Z,10.20
2022-07-30T03:02:43.521Z,7.10
2022-07-30T03:05:12.470Z,11.30
2022-07-30T03:07:40.548Z,13.50
2022-07-30T03:10:08.289Z,8.53
2022-07-30T03:12:38.014Z,8.33
2022-07-30T03:15:05.680Z,8.40
2022-07-30T03:17:36.087Z,9.37
2022-07-30T03:20:04.904Z,9.10
2022-07-30T03:22:33.327Z,8.30
2022-07-30T03:25:00.728Z,8.33
2022-07-30T03:27:28.288Z,7.00
2022-07-30T03:29:59.341Z,8.77
2022-07-30T03:32:26.822Z,12.00
2022-07-30T03:34:54.619Z,7.33
2022-07-30T03:37:24.655Z,9.67
2022-07-30T03:39:51.929Z,14.30
2022-07-30T03:42:19.469Z,10.93
2022-07-30T03:44:47.256Z,8.47
2022-07-30T03:47:15.938Z,9.13
2022-07-30T03:49:44.127Z,8.33
2022-07-30T03:52:11.700Z,12.17
2022-07-30T03:54:39.028Z,9.77
2022-07-30T03:57:06.417Z,9.30
2022-07-30T03:59:34.296Z,8.30
2022-07-30T04:02:06.762Z,9.87
2022-07-30T04:04:36.226Z,8.47
2022-07-30T04:07:03.764Z,10.37
2022-07-30T04:09:31.354Z,8.70
2022-07-30T04:11:59.060Z,11.20
2022-07-30T04:14:26.467Z,9.00
2022-07-30T04:17:03.126Z,10.70
2022-07-30T04:19:32.841Z,11.93
2022-07-30T04:22:01.138Z,8.97
2022-07-30T04:24:28.886Z,12.27
2022-07-30T04:26:56.628Z,9.87
2022-07-30T04:29:24.875Z,10.13
2022-07-30T04:31:53.096Z,10.90
2022-07-30T04:34:20.364Z,10.83
2022-07-30T04:36:47.809Z,13.97
2022-07-30T04:39:15.069Z,10.77
2022-07-30T04:41:48.223Z,12.47
2022-07-30T04:44:16.638Z,10.10
2022-07-30T04:46:43.988Z,9.40
2022-07-30T04:49:12.287Z,11.27
2022-07-30T04:51:40.239Z,10.10
2022-07-30T04:54:15.052Z,11.40
2022-07-30T04:56:53.177Z,10.43
2022-07-30T04:59:21.770Z,12.60
2022-07-30T05:01:50.173Z,11.10
2022-07-30T05:04:19.064Z,11.63
2022-07-30T05:06:53.987Z,13.63
2022-07-30T05:09:21.599Z,11.67
2022-07-30T05:11:55.731Z,10.77
2022-07-30T05:14:23.493Z,12.23
2022-07-30T05:16:51.446Z,11.63
2022-07-30T05:19:22.216Z,11.73
2022-07-30T05:21:49.403Z,11.57
2022-07-30T05:24:16.801Z,10.63
2022-07-30T05:26:44.369Z,12.27
2022-07-30T05:29:19.463Z,11.20
2022-07-30T05:31:48.007Z,11.23
2022-07-30T05:34:15.264Z,13.93
2022-07-30T05:36:44.862Z,10.83
2022-07-30T05:39:12.300Z,14.63
2022-07-30T05:41:39.576Z,12.10
2022-07-30T05:44:07.045Z,11.53
2022-07-30T05:46:34.370Z,12.43
2022-07-30T05:49:02.336Z,11.13
2022-07-30T05:51:29.792Z,11.80
2022-07-30T05:53:57.045Z,12.80
2022-07-30T05:56:24.570Z,12.20
2022-07-30T05:58:52.468Z,16.37
2022-07-30T06:01:20.112Z,11.80
2022-07-30T06:03:47.811Z,12.03
2022-07-30T06:06:18.580Z,12.37
2022-07-30T06:08:50.188Z,16.80
2022-07-30T06:11:18.992Z,11.03
2022-07-30T06:13:46.244Z,12.17
2022-07-30T06:16:13.599Z,14.20
2022-07-30T06:18:41.402Z,12.20
2022-07-30T06:21:09.240Z,16.00
2022-07-30T06:23:36.452Z,14.07
2022-07-30T06:26:03.746Z,14.23
2022-07-30T06:28:39.184Z,13.17
2022-07-30T06:31:07.546Z,13.00
2022-07-30T06:33:35.005Z,11.77
2022-07-30T06:36:02.266Z,10.23
2022-07-30T06:38:29.509Z,11.37
2022-07-30T06:41:02.567Z,13.03
2022-07-30T06:43:30.787Z,12.53
2022-07-30T06:45:58.184Z,13.87
2022-07-30T06:48:25.501Z,9.80
2022-07-30T06:50:54.157Z,10.10
2022-07-30T06:53:21.539Z,13.03
2022-07-30T06:55:51.180Z,11.07
2022-07-30T06:58:25.255Z,12.80
2022-07-30T07:00:53.030Z,12.10
2022-07-30T07:03:20.224Z,10.77
2022-07-30T07:05:47.663Z,10.43
2022-07-30T07:08:15.484Z,11.00
2022-07-30T07:10:42.993Z,9.60
2022-07-30T07:13:10.298Z,11.20
2022-07-30T07:15:37.779Z,10.13
2022-07-30T07:18:06.561Z,14.03
2022-07-30T07:20:36.975Z,10.67
2022-07-30T07:23:09.259Z,10.87
2022-07-30T07:25:39.883Z,8.70
2022-07-30T07:28:12.238Z,10.47
2022-07-30T07:30:41.168Z,11.33
2022-07-30T07:33:08.766Z,9.97
2022-07-30T07:35:48.411Z,12.65
2022-07-30T07:38:16.901Z,14.10
2022-07-30T07:40:44.166Z,8.18
2022-07-30T07:43:11.340Z,9.38
2022-07-30T07:45:40.519Z,9.13
2022-07-30T07:48:07.493Z,10.38
2022-07-30T07:50:34.512Z,16.02
2022-07-30T07:53:01.907Z,9.00
2022-07-30T07:55:32.831Z,9.88
2022-07-30T07:57:59.998Z,9.48
2022-07-30T08:00:27.033Z,10.15
2022-07-30T08:02:54.085Z,8.57
2022-07-30T08:05:21.407Z,10.45
2022-07-30T08:07:48.664Z,8.00
2022-07-30T08:10:16.219Z,9.43
2022-07-30T08:12:43.683Z,9.93
2022-07-30T08:15:11.131Z,11.50
2022-07-30T08:17:45.012Z,8.20
2022-07-30T08:20:13.182Z,8.38
2022-07-30T08:22:40.998Z,10.48
2022-07-30T08:25:08.692Z,9.73
2022-07-30T08:27:36.017Z,9.10
2022-07-30T08:30:04.590Z,10.70
2022-07-30T08:32:31.944Z,9.82
2022-07-30T08:34:59.300Z,8.82
2022-07-30T08:37:28.293Z,8.05
2022-07-30T08:39:55.617Z,8.20
2022-07-30T08:42:30.892Z,7.75
2022-07-30T08:45:15.143Z,7.45
2022-07-30T08:55:10.931Z,9.60
2022-07-30T08:57:38.526Z,8.38
2022-07-30T09:00:23.461Z,12.18
2022-07-30T09:02:51.849Z,9.52
2022-07-30T09:08:07.198Z,7.32
2022-07-30T09:10:49.517Z,7.00
2022-07-30T09:13:24.243Z,7.38
2022-07-30T09:19:14.496Z,6.55
2022-07-30T09:21:43.857Z,6.63
2022-07-30T09:24:13.297Z,9.68
2022-07-30T09:26:57.454Z,6.75
2022-07-30T09:29:26.086Z,8.88
2022-07-30T09:32:01.964Z,11.80
2022-07-30T09:34:33.911Z,16.13
2022-07-30T09:37:02.829Z,9.20
2022-07-30T09:39:37.633Z,9.80
2022-07-30T09:42:05.944Z,8.88
2022-07-30T09:44:33.591Z,7.10
2022-07-30T09:47:02.954Z,8.20
2022-07-30T09:49:31.588Z,10.35
2022-07-30T09:51:59.030Z,8.20
2022-07-30T09:54:26.820Z,7.28
2022-07-30T09:57:22.747Z,10.43
2022-07-30T09:59:53.440Z,7.57
2022-07-30T10:02:20.811Z,6.45
2022-07-30T10:04:48.878Z,8.13
2022-07-30T10:07:25.224Z,7.05
2022-07-30T10:09:54.380Z,6.15
2022-07-30T10:12:24.078Z,8.52
2022-07-30T10:14:53.787Z,7.13
2022-07-30T10:17:21.621Z,9.27
2022-07-30T10:19:49.186Z,15.73
2022-07-30T10:22:17.887Z,7.90
2022-07-30T10:24:47.785Z,11.30
2022-07-30T10:27:16.687Z,8.95
2022-07-30T10:29:47.519Z,11.77
2022-07-30T10:32:14.874Z,6.05
2022-07-30T10:34:42.938Z,7.00
2022-07-30T10:37:12.453Z,7.95
2022-07-30T10:39:44.643Z,9.85
2022-07-30T10:42:34.825Z,8.45
2022-07-30T10:45:02.164Z,5.38
2022-07-30T10:47:34.291Z,7.47
2022-07-30T10:50:22.226Z,8.68
2022-07-30T10:52:54.105Z,4.70
2022-07-30T10:55:36.931Z,9.70
2022-07-30T10:58:06.054Z,7.22
2022-07-30T11:00:35.682Z,7.55
2022-07-30T11:03:15.071Z,7.97
2022-07-30T11:05:45.839Z,8.85
2022-07-30T11:08:36.166Z,6.20
2022-07-30T11:11:19.531Z,5.22
2022-07-30T11:13:57.837Z,7.40
2022-07-30T11:16:45.993Z,5.57
2022-07-30T11:19:54.874Z,7.03
2022-07-30T11:22:25.776Z,11.02
2022-07-30T11:24:53.466Z,5.85
2022-07-30T11:27:38.506Z,7.40
2022-07-30T11:30:19.077Z,7.18
2022-07-30T11:32:50.506Z,4.80
2022-07-30T11:35:23.123Z,7.55
2022-07-30T11:38:03.343Z,7.72
2022-07-30T11:40:32.846Z,4.38
2022-07-30T11:43:34.859Z,9.88
2022-07-30T11:46:06.938Z,4.18
2022-07-30T11:48:39.617Z,5.50
2022-07-30T11:51:07.149Z,11.27
2022-07-30T11:53:34.862Z,5.35
2022-07-30T11:56:04.768Z,6.47
2022-07-30T11:58:35.483Z,4.10
2022-07-30T12:01:09.169Z,5.05
2022-07-30T12:03:40.894Z,3.88
2022-07-30T12:06:13.828Z,4.07
2022-07-30T12:08:42.310Z,6.38
2022-07-30T12:11:12.383Z,4.50
2022-07-30T12:13:42.875Z,7.93
2022-07-30T12:16:17.352Z,5.80
2022-07-30T12:18:45.215Z,7.57
2022-07-30T12:21:12.884Z,5.45
2022-07-30T12:23:43.419Z,7.18
2022-07-30T12:26:27.742Z,6.93
2022-07-30T12:28:55.843Z,4.93
2022-07-30T12:31:23.475Z,5.53
2022-07-30T12:33:50.848Z,5.38
2022-07-30T12:36:31.567Z,6.70
2022-07-30T12:38:59.246Z,6.57
2022-07-30T12:41:45.881Z,4.60
2022-07-30T12:44:34.523Z,5.00
2022-07-30T12:47:03.060Z,6.80
2022-07-30T12:49:39.260Z,9.13
2022-07-30T12:52:29.340Z,5.53
2022-07-30T12:55:03.285Z,5.45
2022-07-30T12:58:08.701Z,3.55
2022-07-30T13:00:48.193Z,7.28
2022-07-30T13:03:41.840Z,3.30
2022-07-30T13:06:16.458Z,7.78
2022-07-30T13:08:47.927Z,4.80
2022-07-30T13:11:15.588Z,6.53
2022-07-30T13:13:43.036Z,3.05
2022-07-30T13:16:12.001Z,4.07
2022-07-30T13:18:39.351Z,5.60
2022-07-30T13:21:11.857Z,5.32
2022-07-30T13:23:40.240Z,2.75
2022-07-30T13:26:09.614Z,8.23
2022-07-30T13:28:37.003Z,4.50
2022-07-30T13:31:05.565Z,4.22
2022-07-30T13:33:33.175Z,7.95
2022-07-30T13:36:01.021Z,4.15
2022-07-30T13:38:28.575Z,4.45
2022-07-30T13:41:01.851Z,2.63
2022-07-30T13:43:33.726Z,5.78
2022-07-30T13:46:06.221Z,4.93
2022-07-30T13:48:33.753Z,7.38
2022-07-30T13:51:01.611Z,5.20
2022-07-30T13:53:29.510Z,2.85
2022-07-30T13:55:59.906Z,2.97
2022-07-30T13:58:27.817Z,2.78
2022-07-30T14:00:55.238Z,3.72
2022-07-30T14:03:22.707Z,5.03
2022-07-30T14:05:51.608Z,4.43
2022-07-30T14:08:18.912Z,6.93
2022-07-30T14:10:46.803Z,5.93
2022-07-30T14:13:20.839Z,2.28
2022-07-30T14:15:48.695Z,2.65
2022-07-30T14:18:15.951Z,4.20
2022-07-30T14:20:48.195Z,2.30
2022-07-30T14:23:16.178Z,3.75
2022-07-30T14:25:44.731Z,5.28
2022-07-30T14:28:12.211Z,4.05
2022-07-30T14:30:41.245Z,5.38
2022-07-30T14:33:10.503Z,3.65
2022-07-30T14:35:37.990Z,3.22
2022-07-30T14:38:06.434Z,4.70
2022-07-30T14:40:34.115Z,7.10
2022-07-30T14:43:02.641Z,2.67
2022-07-30T14:45:30.248Z,2.28
2022-07-30T14:48:02.498Z,2.13
2022-07-30T14:50:30.921Z,3.63
2022-07-30T14:52:58.211Z,4.93
2022-07-30T14:55:27.281Z,2.35
2022-07-30T14:57:54.634Z,5.60
2022-07-30T15:00:24.234Z,3.05
2022-07-30T15:02:51.871Z,2.92
2022-07-30T15:05:19.141Z,2.65
2022-07-30T15:07:46.588Z,4.65
2022-07-30T15:10:17.794Z,5.10
2022-07-30T15:12:46.723Z,5.93
2022-07-30T15:15:15.420Z,5.93
2022-07-30T15:17:44.197Z,5.68
2022-07-30T15:20:12.221Z,3.40
2022-07-30T15:22:42.532Z,4.90
2022-07-30T15:25:09.963Z,2.97
2022-07-30T15:27:38.019Z,10.10
2022-07-30T15:30:05.699Z,5.00
2022-07-30T15:32:32.998Z,2.35
2022-07-30T15:35:00.423Z,5.10
2022-07-30T15:37:28.052Z,3.95
2022-07-30T15:39:57.354Z,4.85
2022-07-30T15:42:27.300Z,5.30
2022-07-30T15:45:16.095Z,4.20
2022-07-30T15:47:44.506Z,4.65
2022-07-30T15:50:17.755Z,2.70
2022-07-30T15:52:47.215Z,4.60
2022-07-30T15:55:14.788Z,3.58
2022-07-30T15:57:43.882Z,2.22
2022-07-30T16:00:13.099Z,4.25
2022-07-30T16:02:41.754Z,2.22
2022-07-30T16:05:13.679Z,2.33
2022-07-30T16:07:42.003Z,7.35
2022-07-30T16:10:09.661Z,3.78
2022-07-30T16:12:37.345Z,3.65
2022-07-30T16:15:10.655Z,1.95
2022-07-30T16:17:39.412Z,3.38
2022-07-30T16:20:09.867Z,3.13
2022-07-30T16:22:39.827Z,1.88
2022-07-30T16:25:07.221Z,2.47
2022-07-30T16:27:34.475Z,1.77
2022-07-30T16:30:01.888Z,2.10
2022-07-30T16:32:29.144Z,2.25
2022-07-30T16:34:56.316Z,3.08
2022-07-30T16:37:23.587Z,3.90
2022-07-30T16:39:51.934Z,2.78
2022-07-30T16:42:20.455Z,1.88
2022-07-30T16:44:47.790Z,2.67
2022-07-30T16:47:15.266Z,1.70
2022-07-30T16:49:51.236Z,1.63
2022-07-30T16:52:20.094Z,1.40
2022-07-30T16:54:47.961Z,2.65
2022-07-30T16:57:16.966Z,2.15
2022-07-30T16:59:44.395Z,3.17
2022-07-30T17:02:16.275Z,2.45
2022-07-30T17:04:43.592Z,9.00
2022-07-30T17:07:10.880Z,2.60
2022-07-30T17:09:38.143Z,7.35
2022-07-30T17:12:12.157Z,8.32
2022-07-30T17:14:40.608Z,7.35
2022-07-30T17:17:13.503Z,2.90
2022-07-30T17:19:43.154Z,2.67
2022-07-30T17:22:12.123Z,7.20
2022-07-30T17:24:39.961Z,1.67
2022-07-30T17:27:08.648Z,1.85
2022-07-30T17:29:48.407Z,3.15
2022-07-30T17:32:18.836Z,2.47
2022-07-30T17:34:46.598Z,4.38
2022-07-30T17:37:20.219Z,2.13
2022-07-30T17:40:26.588Z,2.45
2022-07-30T17:42:47.257Z,2.30
2022-07-30T17:45:22.854Z,1.63
2022-07-30T17:47:50.399Z,1.40
2022-07-30T17:50:18.007Z,1.60
2022-07-30T17:52:46.511Z,1.65
2022-07-30T17:55:14.302Z,5.80
2022-07-30T17:57:48.802Z,1.25
2022-07-30T18:00:18.191Z,3.03
2022-07-30T18:02:48.834Z,1.67
2022-07-30T18:05:26.868Z,1.40
2022-07-30T18:07:54.184Z,1.45
2022-07-30T18:13:32.076Z,1.48
2022-07-30T18:16:02.559Z,1.98
2022-07-30T18:18:35.634Z,2.13
2022-07-30T18:21:04.844Z,1.42
2022-07-30T18:23:47.338Z,1.30
2022-07-30T18:26:17.908Z,1.55
2022-07-30T18:28:47.373Z,1.38
2022-07-30T18:31:14.647Z,1.52
2022-07-30T18:34:04.327Z,3.15
2022-07-30T18:36:31.746Z,1.90
2022-07-30T18:38:59.053Z,3.25
2022-07-30T18:41:26.369Z,15.25
2022-07-30T18:43:54.779Z,18.42
2022-07-30T18:46:25.800Z,10.32
2022-07-30T18:48:53.132Z,4.22
2022-07-30T18:51:25.141Z,4.57
2022-07-30T18:53:52.873Z,3.50
2022-07-30T18:56:20.772Z,2.25
2022-07-30T18:58:48.624Z,2.30
2022-07-30T19:01:18.421Z,2.75
2022-07-30T19:03:46.310Z,1.63
2022-07-30T19:06:14.979Z,1.95
2022-07-30T19:08:42.543Z,1.90
2022-07-30T19:11:09.817Z,3.55
2022-07-30T19:13:39.718Z,3.40
2022-07-30T19:16:08.252Z,2.13
2022-07-30T19:18:36.888Z,2.10
2022-07-30T19:21:05.575Z,2.53
2022-07-30T19:24:00.687Z,2.97
2022-07-30T19:26:33.530Z,2.63
2022-07-30T19:32:00.124Z,2.58
2022-07-30T19:34:33.294Z,2.38
2022-07-30T19:37:01.719Z,1.90
2022-07-30T19:42:44.277Z,2.30
2022-07-30T19:45:14.428Z,6.57
2022-07-30T19:48:40.105Z,2.65
2022-07-30T19:54:08.041Z,4.57
2022-07-30T19:56:37.979Z,6.10
2022-07-30T19:59:14.678Z,5.03
2022-07-30T20:01:44.355Z,2.35
2022-07-30T20:07:12.268Z,2.10
2022-07-30T20:09:44.485Z,3.83
2022-07-30T20:12:18.100Z,4.93
2022-07-30T20:14:48.480Z,7.38
2022-07-30T20:17:17.131Z,2.33
2022-07-30T20:19:49.642Z,3.63
2022-07-30T20:22:28.123Z,3.53
2022-07-30T20:27:44.841Z,4.45
2022-07-30T20:30:12.716Z,2.45
2022-07-30T20:32:46.323Z,2.10
2022-07-30T20:35:15.307Z,8.23
2022-07-30T20:37:54.621Z,4.75
2022-07-30T20:40:23.847Z,7.40
2022-07-30T20:42:53.434Z,3.42
2022-07-30T20:45:24.418Z,3.67
2022-07-30T20:47:57.293Z,4.03
2022-07-30T20:50:30.930Z,8.38
2022-07-30T20:52:59.252Z,16.60
2022-07-30T20:55:29.112Z,4.65
2022-07-30T20:58:13.814Z,4.78
2022-07-30T21:00:51.238Z,3.00
2022-07-30T21:06:08.039Z,3.20
2022-07-30T21:08:35.280Z,5.73
2022-07-30T21:11:04.705Z,5.00
2022-07-30T21:13:32.690Z,6.00
2022-07-30T21:16:02.211Z,10.90
2022-07-30T21:18:33.103Z,7.18
2022-07-30T21:21:04.917Z,3.70
2022-07-30T21:23:38.995Z,5.00
2022-07-30T21:26:13.422Z,2.97
2022-07-30T21:28:41.272Z,2.43
2022-07-30T21:31:08.977Z,4.95
2022-07-30T21:33:39.786Z,3.53
2022-07-30T21:36:10.233Z,4.83
2022-07-30T21:38:42.813Z,5.13
2022-07-30T21:41:15.121Z,5.57
2022-07-30T21:43:43.434Z,2.78
2022-07-30T21:46:13.081Z,3.40
2022-07-30T21:48:43.684Z,3.90
2022-07-30T21:51:12.152Z,3.40
2022-07-30T21:53:45.222Z,2.73
2022-07-30T21:56:16.903Z,4.13
2022-07-30T21:58:48.501Z,4.13
2022-07-30T22:01:20.290Z,5.57
2022-07-30T22:06:43.285Z,3.03
2022-07-30T22:09:19.698Z,6.17
2022-07-30T22:12:06.196Z,4.20
2022-07-30T22:14:34.885Z,2.73
2022-07-30T22:17:04.219Z,2.43
2022-07-30T22:19:33.424Z,2.90
2022-07-30T22:22:25.849Z,4.47
2022-07-30T22:24:50.353Z,2.30
2022-07-30T22:27:18.681Z,3.90
2022-07-30T22:29:50.421Z,4.80
2022-07-30T22:32:23.191Z,2.33
2022-07-30T22:34:50.834Z,4.63
2022-07-30T22:37:21.324Z,3.97
2022-07-30T22:39:54.135Z,4.13
2022-07-30T22:42:23.964Z,4.23
2022-07-30T22:44:52.467Z,2.27
2022-07-30T22:47:50.390Z,2.20
2022-07-30T22:50:09.251Z,3.00
2022-07-30T22:52:57.414Z,3.90
2022-07-30T22:55:33.183Z,4.17
2022-07-30T22:58:02.909Z,2.53
2022-07-30T23:00:31.781Z,3.00
2022-07-30T23:02:59.616Z,3.00
2022-07-30T23:05:27.295Z,3.90
2022-07-30T23:07:55.858Z,2.23
2022-07-30T23:10:25.698Z,3.17
2022-07-30T23:12:32.586Z,2.50
2022-07-30T23:12:33.171Z,5.97
2022-07-30T23:16:35.531Z,4.30
2022-07-30T23:19:03.119Z,3.97
2022-07-30T23:28:23.765Z,2.60
2022-07-30T23:30:51.253Z,2.10
2022-07-30T23:33:29.265Z,3.90
2022-07-30T23:36:31.531Z,4.37
2022-07-30T23:39:02.647Z,5.13
2022-07-30T23:41:32.494Z,2.73
2022-07-30T23:44:04.234Z,3.73
2022-07-30T23:52:39.829Z,4.27
2022-07-30T23:55:10.373Z,5.00
2022-07-30T23:57:41.894Z,3.27
